sensor_id;sensor_type;location;lat;lon;timestamp;P1;durP1;ratioP1;P2;durP2;ratioP2
9062;SDS011;4567;42.118;24.746;2022-12-29T00:00:13;24.50;;;17.07;;
9062;SDS011;4567;42.118;24.746;2022-12-29T00:02:41;28.40;;;17.37;;
9062;SDS011;4567;42.118;24.746;2022-12-29T00:05:08;25.13;;;17.07;;
9062;SDS011;4567;42.118;24.746;2022-12-29T00:07:35;24.30;;;17.33;;
9062;SDS011;4567;42.118;24.746;2022-12-29T00:10:02;22.60;;;16.47;;
9062;SDS011;4567;42.118;24.746;2022-12-29T00:12:29;23.67;;;16.80;;
9062;SDS011;4567;42.118;24.746;2022-12-29T00:15:16;22.67;;;16.97;;
9062;SDS011;4567;42.118;24.746;2022-12-29T00:18:01;24.93;;;16.93;;
9062;SDS011;4567;42.118;24.746;2022-12-29T00:20:28;26.87;;;17.83;;
9062;SDS011;4567;42.118;24.746;2022-12-29T00:23:09;24.13;;;16.93;;
9062;SDS011;4567;42.118;24.746;2022-12-29T00:25:54;25.40;;;17.13;;
9062;SDS011;4567;42.118;24.746;2022-12-29T00:28:39;24.63;;;17.30;;
9062;SDS011;4567;42.118;24.746;2022-12-29T00:31:23;28.67;;;17.03;;
9062;SDS011;4567;42.118;24.746;2022-12-29T00:34:09;23.87;;;17.27;;
9062;SDS011;4567;42.118;24.746;2022-12-29T00:36:54;26.87;;;17.27;;
9062;SDS011;4567;42.118;24.746;2022-12-29T00:39:21;24.63;;;17.23;;
9062;SDS011;4567;42.118;24.746;2022-12-29T00:42:04;25.27;;;18.53;;
9062;SDS011;4567;42.118;24.746;2022-12-29T00:44:57;22.33;;;17.83;;
9062;SDS011;4567;42.118;24.746;2022-12-29T00:47:24;23.93;;;17.53;;
9062;SDS011;4567;42.118;24.746;2022-12-29T00:49:52;24.03;;;18.07;;
9062;SDS011;4567;42.118;24.746;2022-12-29T00:52:18;27.17;;;18.50;;
9062;SDS011;4567;42.118;24.746;2022-12-29T00:54:44;36.33;;;21.13;;
9062;SDS011;4567;42.118;24.746;2022-12-29T00:57:11;36.27;;;20.23;;
9062;SDS011;4567;42.118;24.746;2022-12-29T00:59:39;34.33;;;20.50;;
9062;SDS011;4567;42.118;24.746;2022-12-29T01:02:08;31.70;;;21.03;;
9062;SDS011;4567;42.118;24.746;2022-12-29T01:04:35;30.17;;;19.90;;
9062;SDS011;4567;42.118;24.746;2022-12-29T01:07:04;29.37;;;19.80;;
9062;SDS011;4567;42.118;24.746;2022-12-29T01:09:31;29.83;;;18.17;;
9062;SDS011;4567;42.118;24.746;2022-12-29T01:12:16;26.33;;;17.80;;
9062;SDS011;4567;42.118;24.746;2022-12-29T01:15:03;21.13;;;17.00;;
9062;SDS011;4567;42.118;24.746;2022-12-29T01:17:30;22.60;;;16.93;;
9062;SDS011;4567;42.118;24.746;2022-12-29T01:19:57;23.83;;;17.50;;
9062;SDS011;4567;42.118;24.746;2022-12-29T01:22:25;24.43;;;17.73;;
9062;SDS011;4567;42.118;24.746;2022-12-29T01:24:51;27.37;;;18.60;;
9062;SDS011;4567;42.118;24.746;2022-12-29T01:27:18;25.60;;;17.30;;
9062;SDS011;4567;42.118;24.746;2022-12-29T01:29:45;24.17;;;17.00;;
9062;SDS011;4567;42.118;24.746;2022-12-29T01:32:11;24.00;;;17.83;;
9062;SDS011;4567;42.118;24.746;2022-12-29T01:34:38;26.70;;;17.73;;
9062;SDS011;4567;42.118;24.746;2022-12-29T01:37:05;25.00;;;17.33;;
9062;SDS011;4567;42.118;24.746;2022-12-29T01:39:33;25.67;;;17.30;;
9062;SDS011;4567;42.118;24.746;2022-12-29T01:41:59;26.10;;;16.57;;
9062;SDS011;4567;42.118;24.746;2022-12-29T01:47:23;25.53;;;17.30;;
9062;SDS011;4567;42.118;24.746;2022-12-29T01:49:55;25.33;;;18.17;;
9062;SDS011;4567;42.118;24.746;2022-12-29T01:52:26;26.83;;;17.67;;
9062;SDS011;4567;42.118;24.746;2022-12-29T01:54:57;26.73;;;17.73;;
9062;SDS011;4567;42.118;24.746;2022-12-29T01:57:25;22.53;;;16.73;;
9062;SDS011;4567;42.118;24.746;2022-12-29T01:59:56;21.47;;;16.13;;
9062;SDS011;4567;42.118;24.746;2022-12-29T02:02:26;28.10;;;17.23;;
9062;SDS011;4567;42.118;24.746;2022-12-29T02:04:54;25.93;;;17.27;;
9062;SDS011;4567;42.118;24.746;2022-12-29T02:07:24;26.17;;;16.23;;
9062;SDS011;4567;42.118;24.746;2022-12-29T02:09:53;26.77;;;17.40;;
9062;SDS011;4567;42.118;24.746;2022-12-29T02:12:22;22.87;;;17.17;;
9062;SDS011;4567;42.118;24.746;2022-12-29T02:14:51;26.00;;;17.40;;
9062;SDS011;4567;42.118;24.746;2022-12-29T02:17:23;24.80;;;17.60;;
9062;SDS011;4567;42.118;24.746;2022-12-29T02:20:11;24.73;;;18.30;;
9062;SDS011;4567;42.118;24.746;2022-12-29T02:22:55;31.77;;;20.80;;
9062;SDS011;4567;42.118;24.746;2022-12-29T02:25:41;55.73;;;35.23;;
9062;SDS011;4567;42.118;24.746;2022-12-29T02:28:39;66.57;;;41.53;;
9062;SDS011;4567;42.118;24.746;2022-12-29T02:31:31;38.83;;;25.80;;
9062;SDS011;4567;42.118;24.746;2022-12-29T02:34:10;29.63;;;20.97;;
9062;SDS011;4567;42.118;24.746;2022-12-29T02:36:50;27.90;;;20.90;;
9062;SDS011;4567;42.118;24.746;2022-12-29T02:39:27;28.90;;;19.87;;
9062;SDS011;4567;42.118;24.746;2022-12-29T02:42:03;27.80;;;19.90;;
9062;SDS011;4567;42.118;24.746;2022-12-29T02:44:41;29.70;;;20.90;;
9062;SDS011;4567;42.118;24.746;2022-12-29T02:47:19;29.60;;;20.00;;
9062;SDS011;4567;42.118;24.746;2022-12-29T02:49:51;29.60;;;19.77;;
9062;SDS011;4567;42.118;24.746;2022-12-29T02:52:28;25.80;;;20.00;;
9062;SDS011;4567;42.118;24.746;2022-12-29T02:54:58;28.23;;;19.83;;
9062;SDS011;4567;42.118;24.746;2022-12-29T02:57:28;29.77;;;20.33;;
9062;SDS011;4567;42.118;24.746;2022-12-29T02:59:58;28.53;;;19.90;;
9062;SDS011;4567;42.118;24.746;2022-12-29T03:02:36;29.43;;;20.67;;
9062;SDS011;4567;42.118;24.746;2022-12-29T03:05:17;26.53;;;20.83;;
9062;SDS011;4567;42.118;24.746;2022-12-29T03:07:55;29.80;;;21.53;;
9062;SDS011;4567;42.118;24.746;2022-12-29T03:10:34;27.40;;;21.17;;
9062;SDS011;4567;42.118;24.746;2022-12-29T03:13:09;29.73;;;21.13;;
9062;SDS011;4567;42.118;24.746;2022-12-29T03:16:01;27.63;;;21.17;;
9062;SDS011;4567;42.118;24.746;2022-12-29T03:18:37;31.40;;;21.30;;
9062;SDS011;4567;42.118;24.746;2022-12-29T03:21:09;28.23;;;21.00;;
9062;SDS011;4567;42.118;24.746;2022-12-29T03:23:38;29.70;;;22.40;;
9062;SDS011;4567;42.118;24.746;2022-12-29T03:26:08;31.23;;;22.90;;
9062;SDS011;4567;42.118;24.746;2022-12-29T03:28:38;33.60;;;22.30;;
9062;SDS011;4567;42.118;24.746;2022-12-29T03:31:09;32.93;;;22.80;;
9062;SDS011;4567;42.118;24.746;2022-12-29T03:33:38;35.43;;;25.30;;
9062;SDS011;4567;42.118;24.746;2022-12-29T03:36:09;46.27;;;27.13;;
9062;SDS011;4567;42.118;24.746;2022-12-29T03:38:44;40.07;;;26.13;;
9062;SDS011;4567;42.118;24.746;2022-12-29T03:41:15;37.07;;;26.40;;
9062;SDS011;4567;42.118;24.746;2022-12-29T03:43:46;38.47;;;26.53;;
9062;SDS011;4567;42.118;24.746;2022-12-29T03:46:13;40.70;;;26.57;;
9062;SDS011;4567;42.118;24.746;2022-12-29T03:48:41;36.57;;;26.50;;
9062;SDS011;4567;42.118;24.746;2022-12-29T03:51:08;38.00;;;25.93;;
9062;SDS011;4567;42.118;24.746;2022-12-29T03:53:34;37.03;;;26.27;;
9062;SDS011;4567;42.118;24.746;2022-12-29T03:56:01;40.37;;;25.73;;
9062;SDS011;4567;42.118;24.746;2022-12-29T03:58:28;35.87;;;24.13;;
9062;SDS011;4567;42.118;24.746;2022-12-29T04:00:55;34.70;;;24.90;;
9062;SDS011;4567;42.118;24.746;2022-12-29T04:03:22;33.93;;;24.53;;
9062;SDS011;4567;42.118;24.746;2022-12-29T04:05:50;32.67;;;23.40;;
9062;SDS011;4567;42.118;24.746;2022-12-29T04:08:17;33.77;;;24.30;;
9062;SDS011;4567;42.118;24.746;2022-12-29T04:10:43;34.90;;;24.23;;
9062;SDS011;4567;42.118;24.746;2022-12-29T04:13:10;33.13;;;24.17;;
9062;SDS011;4567;42.118;24.746;2022-12-29T04:15:37;33.27;;;24.37;;
9062;SDS011;4567;42.118;24.746;2022-12-29T04:18:03;36.27;;;24.73;;
9062;SDS011;4567;42.118;24.746;2022-12-29T04:20:30;34.37;;;24.33;;
9062;SDS011;4567;42.118;24.746;2022-12-29T04:23:15;38.60;;;24.03;;
9062;SDS011;4567;42.118;24.746;2022-12-29T04:25:44;39.07;;;25.43;;
9062;SDS011;4567;42.118;24.746;2022-12-29T04:28:12;36.53;;;25.93;;
9062;SDS011;4567;42.118;24.746;2022-12-29T04:30:38;41.23;;;26.27;;
9062;SDS011;4567;42.118;24.746;2022-12-29T04:33:05;35.17;;;24.47;;
9062;SDS011;4567;42.118;24.746;2022-12-29T04:35:32;34.67;;;23.93;;
9062;SDS011;4567;42.118;24.746;2022-12-29T04:37:59;33.47;;;23.17;;
9062;SDS011;4567;42.118;24.746;2022-12-29T04:40:27;33.23;;;23.50;;
9062;SDS011;4567;42.118;24.746;2022-12-29T04:42:53;37.00;;;23.73;;
9062;SDS011;4567;42.118;24.746;2022-12-29T04:45:20;38.03;;;25.07;;
9062;SDS011;4567;42.118;24.746;2022-12-29T04:47:47;38.93;;;25.50;;
9062;SDS011;4567;42.118;24.746;2022-12-29T04:50:14;44.17;;;27.50;;
9062;SDS011;4567;42.118;24.746;2022-12-29T04:52:40;49.50;;;30.17;;
9062;SDS011;4567;42.118;24.746;2022-12-29T04:55:07;48.40;;;29.47;;
9062;SDS011;4567;42.118;24.746;2022-12-29T04:57:35;44.53;;;28.30;;
9062;SDS011;4567;42.118;24.746;2022-12-29T05:00:03;41.67;;;26.73;;
9062;SDS011;4567;42.118;24.746;2022-12-29T05:02:30;44.10;;;27.40;;
9062;SDS011;4567;42.118;24.746;2022-12-29T05:04:57;48.33;;;26.13;;
9062;SDS011;4567;42.118;24.746;2022-12-29T05:07:24;46.30;;;26.93;;
9062;SDS011;4567;42.118;24.746;2022-12-29T05:09:51;39.80;;;27.90;;
9062;SDS011;4567;42.118;24.746;2022-12-29T05:12:17;46.23;;;28.13;;
9062;SDS011;4567;42.118;24.746;2022-12-29T05:14:45;38.93;;;25.77;;
9062;SDS011;4567;42.118;24.746;2022-12-29T05:20:59;36.97;;;22.97;;
9062;SDS011;4567;42.118;24.746;2022-12-29T05:23:26;41.10;;;24.03;;
9062;SDS011;4567;42.118;24.746;2022-12-29T05:25:53;37.20;;;25.87;;
9062;SDS011;4567;42.118;24.746;2022-12-29T05:28:20;38.73;;;24.60;;
9062;SDS011;4567;42.118;24.746;2022-12-29T05:30:49;37.90;;;24.23;;
9062;SDS011;4567;42.118;24.746;2022-12-29T05:33:16;41.70;;;24.57;;
9062;SDS011;4567;42.118;24.746;2022-12-29T05:35:43;45.53;;;25.43;;
9062;SDS011;4567;42.118;24.746;2022-12-29T05:38:10;53.07;;;27.33;;
9062;SDS011;4567;42.118;24.746;2022-12-29T05:40:37;39.83;;;26.43;;
9062;SDS011;4567;42.118;24.746;2022-12-29T05:43:03;49.90;;;28.50;;
9062;SDS011;4567;42.118;24.746;2022-12-29T05:45:30;38.77;;;25.57;;
9062;SDS011;4567;42.118;24.746;2022-12-29T05:47:58;45.03;;;26.67;;
9062;SDS011;4567;42.118;24.746;2022-12-29T05:50:25;43.93;;;26.47;;
9062;SDS011;4567;42.118;24.746;2022-12-29T05:52:52;42.80;;;27.40;;
9062;SDS011;4567;42.118;24.746;2022-12-29T05:55:19;41.73;;;27.03;;
9062;SDS011;4567;42.118;24.746;2022-12-29T05:57:46;38.63;;;24.10;;
9062;SDS011;4567;42.118;24.746;2022-12-29T06:00:13;35.50;;;23.33;;
9062;SDS011;4567;42.118;24.746;2022-12-29T06:02:41;39.57;;;24.60;;
9062;SDS011;4567;42.118;24.746;2022-12-29T06:05:09;38.90;;;25.93;;
9062;SDS011;4567;42.118;24.746;2022-12-29T06:07:36;37.17;;;24.73;;
9062;SDS011;4567;42.118;24.746;2022-12-29T06:10:03;37.43;;;25.63;;
9062;SDS011;4567;42.118;24.746;2022-12-29T06:12:30;42.73;;;27.70;;
9062;SDS011;4567;42.118;24.746;2022-12-29T06:14:57;49.17;;;30.73;;
9062;SDS011;4567;42.118;24.746;2022-12-29T06:17:24;49.70;;;31.07;;
9062;SDS011;4567;42.118;24.746;2022-12-29T06:19:51;41.60;;;29.97;;
9062;SDS011;4567;42.118;24.746;2022-12-29T06:22:19;42.57;;;27.67;;
9062;SDS011;4567;42.118;24.746;2022-12-29T06:24:45;41.67;;;26.47;;
9062;SDS011;4567;42.118;24.746;2022-12-29T06:27:12;46.60;;;32.27;;
9062;SDS011;4567;42.118;24.746;2022-12-29T06:29:39;44.00;;;30.47;;
9062;SDS011;4567;42.118;24.746;2022-12-29T06:32:07;45.13;;;28.00;;
9062;SDS011;4567;42.118;24.746;2022-12-29T06:34:34;41.50;;;27.20;;
9062;SDS011;4567;42.118;24.746;2022-12-29T06:37:01;45.97;;;29.10;;
9062;SDS011;4567;42.118;24.746;2022-12-29T06:39:30;46.83;;;29.70;;
9062;SDS011;4567;42.118;24.746;2022-12-29T06:41:57;45.67;;;31.47;;
9062;SDS011;4567;42.118;24.746;2022-12-29T06:44:23;52.17;;;31.13;;
9062;SDS011;4567;42.118;24.746;2022-12-29T06:46:50;69.90;;;39.47;;
9062;SDS011;4567;42.118;24.746;2022-12-29T06:49:17;64.07;;;37.47;;
9062;SDS011;4567;42.118;24.746;2022-12-29T06:51:44;57.57;;;34.83;;
9062;SDS011;4567;42.118;24.746;2022-12-29T06:54:10;86.47;;;54.77;;
9062;SDS011;4567;42.118;24.746;2022-12-29T06:56:38;88.93;;;53.10;;
9062;SDS011;4567;42.118;24.746;2022-12-29T06:59:05;60.93;;;37.03;;
9062;SDS011;4567;42.118;24.746;2022-12-29T07:01:32;52.53;;;31.80;;
9062;SDS011;4567;42.118;24.746;2022-12-29T07:04:00;58.67;;;36.23;;
9062;SDS011;4567;42.118;24.746;2022-12-29T07:06:27;68.53;;;39.93;;
9062;SDS011;4567;42.118;24.746;2022-12-29T07:08:54;74.10;;;45.33;;
9062;SDS011;4567;42.118;24.746;2022-12-29T07:11:22;100.50;;;46.43;;
9062;SDS011;4567;42.118;24.746;2022-12-29T07:13:51;98.47;;;48.90;;
9062;SDS011;4567;42.118;24.746;2022-12-29T07:16:17;98.83;;;51.30;;
9062;SDS011;4567;42.118;24.746;2022-12-29T07:18:45;87.40;;;49.60;;
9062;SDS011;4567;42.118;24.746;2022-12-29T07:21:11;86.17;;;44.93;;
9062;SDS011;4567;42.118;24.746;2022-12-29T07:23:38;80.20;;;42.30;;
9062;SDS011;4567;42.118;24.746;2022-12-29T07:26:05;77.27;;;41.50;;
9062;SDS011;4567;42.118;24.746;2022-12-29T07:28:33;73.03;;;42.13;;
9062;SDS011;4567;42.118;24.746;2022-12-29T07:31:02;69.37;;;39.00;;
9062;SDS011;4567;42.118;24.746;2022-12-29T07:33:29;62.17;;;38.93;;
9062;SDS011;4567;42.118;24.746;2022-12-29T07:35:56;60.23;;;37.17;;
9062;SDS011;4567;42.118;24.746;2022-12-29T07:38:24;61.47;;;39.37;;
9062;SDS011;4567;42.118;24.746;2022-12-29T07:40:51;64.23;;;38.80;;
9062;SDS011;4567;42.118;24.746;2022-12-29T07:43:17;72.80;;;39.93;;
9062;SDS011;4567;42.118;24.746;2022-12-29T07:45:44;65.67;;;39.33;;
9062;SDS011;4567;42.118;24.746;2022-12-29T07:48:12;64.70;;;38.77;;
9062;SDS011;4567;42.118;24.746;2022-12-29T07:50:39;56.07;;;35.93;;
9062;SDS011;4567;42.118;24.746;2022-12-29T07:53:05;60.73;;;36.77;;
9062;SDS011;4567;42.118;24.746;2022-12-29T07:55:32;57.40;;;36.63;;
9062;SDS011;4567;42.118;24.746;2022-12-29T07:57:59;61.10;;;37.67;;
9062;SDS011;4567;42.118;24.746;2022-12-29T08:00:26;59.97;;;38.97;;
9062;SDS011;4567;42.118;24.746;2022-12-29T08:02:52;53.97;;;34.00;;
9062;SDS011;4567;42.118;24.746;2022-12-29T08:05:20;53.13;;;31.13;;
9062;SDS011;4567;42.118;24.746;2022-12-29T08:07:47;47.50;;;29.27;;
9062;SDS011;4567;42.118;24.746;2022-12-29T08:10:14;49.53;;;30.13;;
9062;SDS011;4567;42.118;24.746;2022-12-29T08:12:41;47.93;;;30.73;;
9062;SDS011;4567;42.118;24.746;2022-12-29T08:15:09;40.97;;;27.83;;
9062;SDS011;4567;42.118;24.746;2022-12-29T08:17:37;45.33;;;29.00;;
9062;SDS011;4567;42.118;24.746;2022-12-29T08:20:04;47.00;;;29.07;;
9062;SDS011;4567;42.118;24.746;2022-12-29T08:22:33;66.67;;;29.87;;
9062;SDS011;4567;42.118;24.746;2022-12-29T08:24:59;45.23;;;29.13;;
9062;SDS011;4567;42.118;24.746;2022-12-29T08:27:26;46.77;;;29.03;;
9062;SDS011;4567;42.118;24.746;2022-12-29T08:29:53;46.17;;;29.47;;
9062;SDS011;4567;42.118;24.746;2022-12-29T08:32:20;53.47;;;28.67;;
9062;SDS011;4567;42.118;24.746;2022-12-29T08:34:46;53.60;;;28.90;;
9062;SDS011;4567;42.118;24.746;2022-12-29T08:37:13;44.30;;;28.47;;
9062;SDS011;4567;42.118;24.746;2022-12-29T08:39:41;42.87;;;26.00;;
9062;SDS011;4567;42.118;24.746;2022-12-29T08:42:08;38.90;;;24.93;;
9062;SDS011;4567;42.118;24.746;2022-12-29T08:44:35;40.63;;;26.03;;
9062;SDS011;4567;42.118;24.746;2022-12-29T08:47:01;41.70;;;26.93;;
9062;SDS011;4567;42.118;24.746;2022-12-29T08:49:28;42.23;;;26.83;;
9062;SDS011;4567;42.118;24.746;2022-12-29T08:51:55;44.27;;;27.47;;
9062;SDS011;4567;42.118;24.746;2022-12-29T08:54:22;38.37;;;25.97;;
9062;SDS011;4567;42.118;24.746;2022-12-29T08:56:50;36.93;;;24.43;;
9062;SDS011;4567;42.118;24.746;2022-12-29T08:59:16;38.87;;;25.80;;
9062;SDS011;4567;42.118;24.746;2022-12-29T09:01:43;39.93;;;25.83;;
9062;SDS011;4567;42.118;24.746;2022-12-29T09:04:10;35.20;;;24.87;;
9062;SDS011;4567;42.118;24.746;2022-12-29T09:06:36;37.73;;;25.80;;
9062;SDS011;4567;42.118;24.746;2022-12-29T09:09:03;38.93;;;25.10;;
9062;SDS011;4567;42.118;24.746;2022-12-29T09:11:30;34.93;;;23.67;;
9062;SDS011;4567;42.118;24.746;2022-12-29T09:13:58;39.37;;;25.13;;
9062;SDS011;4567;42.118;24.746;2022-12-29T09:16:25;37.80;;;25.47;;
9062;SDS011;4567;42.118;24.746;2022-12-29T09:18:52;37.00;;;24.43;;
9062;SDS011;4567;42.118;24.746;2022-12-29T09:21:19;35.83;;;24.67;;
9062;SDS011;4567;42.118;24.746;2022-12-29T09:23:46;62.77;;;25.57;;
9062;SDS011;4567;42.118;24.746;2022-12-29T09:26:13;37.17;;;24.17;;
9062;SDS011;4567;42.118;24.746;2022-12-29T09:28:41;34.57;;;23.70;;
9062;SDS011;4567;42.118;24.746;2022-12-29T09:31:10;36.73;;;24.57;;
9062;SDS011;4567;42.118;24.746;2022-12-29T09:33:37;33.83;;;22.93;;
9062;SDS011;4567;42.118;24.746;2022-12-29T09:36:04;34.60;;;21.07;;
9062;SDS011;4567;42.118;24.746;2022-12-29T09:38:31;32.30;;;20.90;;
9062;SDS011;4567;42.118;24.746;2022-12-29T09:40:59;33.80;;;20.80;;
9062;SDS011;4567;42.118;24.746;2022-12-29T09:43:40;40.90;;;20.90;;
9062;SDS011;4567;42.118;24.746;2022-12-29T09:46:27;30.87;;;20.03;;
9062;SDS011;4567;42.118;24.746;2022-12-29T09:49:00;31.93;;;21.93;;
9062;SDS011;4567;42.118;24.746;2022-12-29T09:51:34;35.30;;;22.40;;
9062;SDS011;4567;42.118;24.746;2022-12-29T09:54:20;33.87;;;22.80;;
9062;SDS011;4567;42.118;24.746;2022-12-29T09:56:57;33.70;;;21.70;;
9062;SDS011;4567;42.118;24.746;2022-12-29T09:59:26;40.83;;;23.60;;
9062;SDS011;4567;42.118;24.746;2022-12-29T10:02:04;33.10;;;22.03;;
9062;SDS011;4567;42.118;24.746;2022-12-29T10:04:43;34.43;;;22.53;;
9062;SDS011;4567;42.118;24.746;2022-12-29T10:07:11;39.07;;;23.07;;
9062;SDS011;4567;42.118;24.746;2022-12-29T10:09:44;33.43;;;22.33;;
9062;SDS011;4567;42.118;24.746;2022-12-29T10:12:21;35.67;;;22.60;;
9062;SDS011;4567;42.118;24.746;2022-12-29T10:14:58;35.60;;;22.80;;
9062;SDS011;4567;42.118;24.746;2022-12-29T10:17:34;35.83;;;22.43;;
9062;SDS011;4567;42.118;24.746;2022-12-29T10:20:16;33.97;;;23.37;;
9062;SDS011;4567;42.118;24.746;2022-12-29T10:23:01;36.87;;;23.97;;
9062;SDS011;4567;42.118;24.746;2022-12-29T10:25:42;40.40;;;23.43;;
9062;SDS011;4567;42.118;24.746;2022-12-29T10:28:14;34.20;;;23.37;;
9062;SDS011;4567;42.118;24.746;2022-12-29T10:30:45;30.67;;;22.87;;
9062;SDS011;4567;42.118;24.746;2022-12-29T10:33:15;33.97;;;21.67;;
9062;SDS011;4567;42.118;24.746;2022-12-29T10:35:46;35.07;;;22.93;;
9062;SDS011;4567;42.118;24.746;2022-12-29T10:38:15;36.67;;;23.80;;
9062;SDS011;4567;42.118;24.746;2022-12-29T10:40:49;36.80;;;23.03;;
9062;SDS011;4567;42.118;24.746;2022-12-29T10:43:22;33.00;;;22.67;;
9062;SDS011;4567;42.118;24.746;2022-12-29T10:45:52;39.03;;;24.77;;
9062;SDS011;4567;42.118;24.746;2022-12-29T10:48:22;33.10;;;23.67;;
9062;SDS011;4567;42.118;24.746;2022-12-29T10:50:53;35.97;;;25.23;;
9062;SDS011;4567;42.118;24.746;2022-12-29T10:53:24;40.40;;;25.57;;
9062;SDS011;4567;42.118;24.746;2022-12-29T10:55:54;35.63;;;23.97;;
9062;SDS011;4567;42.118;24.746;2022-12-29T10:58:21;39.50;;;24.83;;
9062;SDS011;4567;42.118;24.746;2022-12-29T11:00:51;35.97;;;24.70;;
9062;SDS011;4567;42.118;24.746;2022-12-29T11:06:18;36.17;;;24.13;;
9062;SDS011;4567;42.118;24.746;2022-12-29T11:08:51;39.60;;;24.33;;
9062;SDS011;4567;42.118;24.746;2022-12-29T11:11:22;35.30;;;24.20;;
9062;SDS011;4567;42.118;24.746;2022-12-29T11:13:55;40.40;;;24.73;;
9062;SDS011;4567;42.118;24.746;2022-12-29T11:16:32;38.87;;;24.57;;
9062;SDS011;4567;42.118;24.746;2022-12-29T11:19:02;37.63;;;25.57;;
9062;SDS011;4567;42.118;24.746;2022-12-29T11:21:33;33.20;;;23.20;;
9062;SDS011;4567;42.118;24.746;2022-12-29T11:24:05;36.20;;;22.80;;
9062;SDS011;4567;42.118;24.746;2022-12-29T11:26:46;33.27;;;24.67;;
9062;SDS011;4567;42.118;24.746;2022-12-29T11:29:22;40.50;;;24.77;;
9062;SDS011;4567;42.118;24.746;2022-12-29T11:31:51;37.07;;;24.20;;
9062;SDS011;4567;42.118;24.746;2022-12-29T11:34:21;34.50;;;23.13;;
9062;SDS011;4567;42.118;24.746;2022-12-29T11:36:51;45.50;;;23.93;;
9062;SDS011;4567;42.118;24.746;2022-12-29T11:39:24;34.17;;;23.33;;
9062;SDS011;4567;42.118;24.746;2022-12-29T11:41:55;37.93;;;23.70;;
9062;SDS011;4567;42.118;24.746;2022-12-29T11:44:22;38.70;;;23.90;;
9062;SDS011;4567;42.118;24.746;2022-12-29T11:46:50;34.63;;;22.73;;
9062;SDS011;4567;42.118;24.746;2022-12-29T11:49:19;37.37;;;23.40;;
9062;SDS011;4567;42.118;24.746;2022-12-29T11:51:49;36.03;;;24.83;;
9062;SDS011;4567;42.118;24.746;2022-12-29T11:54:21;37.67;;;25.23;;
9062;SDS011;4567;42.118;24.746;2022-12-29T11:56:50;38.73;;;24.63;;
9062;SDS011;4567;42.118;24.746;2022-12-29T11:59:23;41.67;;;23.87;;
9062;SDS011;4567;42.118;24.746;2022-12-29T12:02:02;33.83;;;22.47;;
9062;SDS011;4567;42.118;24.746;2022-12-29T12:04:40;36.50;;;22.93;;
9062;SDS011;4567;42.118;24.746;2022-12-29T12:07:10;36.10;;;23.40;;
9062;SDS011;4567;42.118;24.746;2022-12-29T12:09:41;32.33;;;21.73;;
9062;SDS011;4567;42.118;24.746;2022-12-29T12:12:15;35.60;;;22.27;;
9062;SDS011;4567;42.118;24.746;2022-12-29T12:14:51;29.73;;;21.63;;
9062;SDS011;4567;42.118;24.746;2022-12-29T12:17:25;29.07;;;21.73;;
9062;SDS011;4567;42.118;24.746;2022-12-29T12:20:05;33.60;;;22.03;;
9062;SDS011;4567;42.118;24.746;2022-12-29T12:22:43;35.23;;;23.00;;
9062;SDS011;4567;42.118;24.746;2022-12-29T12:25:17;34.63;;;23.30;;
9062;SDS011;4567;42.118;24.746;2022-12-29T12:27:48;35.87;;;22.73;;
9062;SDS011;4567;42.118;24.746;2022-12-29T12:30:19;32.87;;;23.03;;
9062;SDS011;4567;42.118;24.746;2022-12-29T12:32:48;32.07;;;22.73;;
9062;SDS011;4567;42.118;24.746;2022-12-29T12:35:23;39.80;;;24.10;;
9062;SDS011;4567;42.118;24.746;2022-12-29T12:38:04;35.57;;;22.80;;
9062;SDS011;4567;42.118;24.746;2022-12-29T12:40:46;41.03;;;23.30;;
9062;SDS011;4567;42.118;24.746;2022-12-29T12:43:39;37.53;;;23.33;;
9062;SDS011;4567;42.118;24.746;2022-12-29T12:46:18;34.17;;;23.43;;
9062;SDS011;4567;42.118;24.746;2022-12-29T12:49:02;35.43;;;23.97;;
9062;SDS011;4567;42.118;24.746;2022-12-29T12:51:50;34.50;;;22.53;;
9062;SDS011;4567;42.118;24.746;2022-12-29T12:54:31;36.03;;;23.57;;
9062;SDS011;4567;42.118;24.746;2022-12-29T12:57:10;35.27;;;24.30;;
9062;SDS011;4567;42.118;24.746;2022-12-29T12:59:47;34.27;;;24.70;;
9062;SDS011;4567;42.118;24.746;2022-12-29T13:02:27;34.53;;;23.67;;
9062;SDS011;4567;42.118;24.746;2022-12-29T13:05:19;35.03;;;24.57;;
9062;SDS011;4567;42.118;24.746;2022-12-29T13:08:06;38.90;;;23.90;;
9062;SDS011;4567;42.118;24.746;2022-12-29T13:10:57;34.30;;;23.33;;
9062;SDS011;4567;42.118;24.746;2022-12-29T13:16:31;36.63;;;22.93;;
9062;SDS011;4567;42.118;24.746;2022-12-29T13:19:08;32.83;;;23.37;;
9062;SDS011;4567;42.118;24.746;2022-12-29T13:21:45;33.00;;;22.70;;
9062;SDS011;4567;42.118;24.746;2022-12-29T13:24:23;33.83;;;22.73;;
9062;SDS011;4567;42.118;24.746;2022-12-29T13:26:58;32.83;;;23.07;;
9062;SDS011;4567;42.118;24.746;2022-12-29T13:29:36;32.87;;;22.47;;
9062;SDS011;4567;42.118;24.746;2022-12-29T13:32:15;29.07;;;22.47;;
9062;SDS011;4567;42.118;24.746;2022-12-29T13:34:54;38.30;;;23.77;;
9062;SDS011;4567;42.118;24.746;2022-12-29T13:37:29;34.33;;;23.27;;
9062;SDS011;4567;42.118;24.746;2022-12-29T13:40:02;31.57;;;22.93;;
9062;SDS011;4567;42.118;24.746;2022-12-29T13:42:37;36.50;;;24.20;;
9062;SDS011;4567;42.118;24.746;2022-12-29T13:45:05;36.07;;;24.87;;
9062;SDS011;4567;42.118;24.746;2022-12-29T13:47:38;39.17;;;25.17;;
9062;SDS011;4567;42.118;24.746;2022-12-29T13:50:12;36.87;;;26.07;;
9062;SDS011;4567;42.118;24.746;2022-12-29T13:52:43;37.93;;;26.60;;
9062;SDS011;4567;42.118;24.746;2022-12-29T13:55:22;38.07;;;27.57;;
9062;SDS011;4567;42.118;24.746;2022-12-29T13:57:53;37.27;;;26.43;;
9062;SDS011;4567;42.118;24.746;2022-12-29T14:00:29;40.13;;;25.90;;
9062;SDS011;4567;42.118;24.746;2022-12-29T14:03:15;35.27;;;25.30;;
9062;SDS011;4567;42.118;24.746;2022-12-29T14:06:02;38.70;;;25.93;;
9062;SDS011;4567;42.118;24.746;2022-12-29T14:08:37;39.97;;;26.33;;
9062;SDS011;4567;42.118;24.746;2022-12-29T14:11:07;39.57;;;25.97;;
9062;SDS011;4567;42.118;24.746;2022-12-29T14:13:37;37.33;;;26.20;;
9062;SDS011;4567;42.118;24.746;2022-12-29T14:16:06;37.37;;;27.00;;
9062;SDS011;4567;42.118;24.746;2022-12-29T14:18:40;38.23;;;26.57;;
9062;SDS011;4567;42.118;24.746;2022-12-29T14:21:10;44.07;;;26.13;;
9062;SDS011;4567;42.118;24.746;2022-12-29T14:23:45;43.43;;;27.33;;
9062;SDS011;4567;42.118;24.746;2022-12-29T14:26:15;44.97;;;28.03;;
9062;SDS011;4567;42.118;24.746;2022-12-29T14:28:45;45.73;;;27.33;;
9062;SDS011;4567;42.118;24.746;2022-12-29T14:36:57;40.03;;;26.80;;
9062;SDS011;4567;42.118;24.746;2022-12-29T14:39:35;39.67;;;26.67;;
9062;SDS011;4567;42.118;24.746;2022-12-29T14:42:06;40.10;;;27.90;;
9062;SDS011;4567;42.118;24.746;2022-12-29T14:44:46;43.60;;;28.20;;
9062;SDS011;4567;42.118;24.746;2022-12-29T14:47:16;39.43;;;26.77;;
9062;SDS011;4567;42.118;24.746;2022-12-29T14:49:46;44.80;;;28.23;;
9062;SDS011;4567;42.118;24.746;2022-12-29T14:52:14;43.50;;;28.47;;
9062;SDS011;4567;42.118;24.746;2022-12-29T14:54:49;46.37;;;28.07;;
9062;SDS011;4567;42.118;24.746;2022-12-29T14:57:21;40.07;;;28.13;;
9062;SDS011;4567;42.118;24.746;2022-12-29T14:59:54;41.70;;;28.67;;
9062;SDS011;4567;42.118;24.746;2022-12-29T15:02:27;47.47;;;28.60;;
9062;SDS011;4567;42.118;24.746;2022-12-29T15:05:00;43.43;;;29.43;;
9062;SDS011;4567;42.118;24.746;2022-12-29T15:07:29;45.57;;;28.87;;
9062;SDS011;4567;42.118;24.746;2022-12-29T15:09:57;53.23;;;28.80;;
9062;SDS011;4567;42.118;24.746;2022-12-29T15:12:33;60.13;;;29.40;;
9062;SDS011;4567;42.118;24.746;2022-12-29T15:15:17;59.10;;;29.83;;